Date,TemperatureHighF,TemperatureAvgF,TemperatureLowF,DewpointHighF,DewpointAvgF,DewpointLowF,HumidityHigh,HumidityAvg,HumidityLow,PressureMaxIn,PressureMinIn,WindSpeedMaxMPH,WindSpeedAvgMPH,GustSpeedMaxMPH,PrecipitationSumIn
2012-1-1,73.0,56.7,39.9,58.7,50.3,38.6,96,81,54,30.39,30.20,13,2,0,0.05
2012-1-2,61.8,49.6,40.2,58.8,28.6,15.9,90,46,23,30.32,30.18,22,4,22,0.00
2012-1-3,41.0,33.7,29.6,17.1,13.0,9.7,54,42,31,30.53,30.25,24,5,24,0.00
2012-1-5,48.4,45.3,38.4,37.6,35.9,35.1,88,70,63,30.32,30.28,0,0,0,0.00
2012-1-6,36.9,36.9,36.9,34.8,34.8,34.8,92,92,92,30.31,30.31,0,0,0,0.00
2012-1-8,76.2,67.1,56.2,57.1,52.7,49.4,81,62,41,30.40,30.31,11,2,0,0.00
2012-1-9,74.7,59.7,47.9,59.4,52.5,46.3,96,79,50,30.39,30.24,15,1,15,0.00
2012-1-10,72.8,60.0,47.4,59.0,53.1,46.0,96,80,54,30.26,30.14,11,1,0,0.00
2012-1-13,51.1,44.4,37.3,25.5,20.9,17.4,52,40,28,30.35,30.19,18,5,18,0.00
2012-1-14,53.9,42.8,32.6,31.8,21.5,13.0,70,45,23,30.49,30.35,17,3,17,0.00
2012-1-15,60.7,46.7,33.4,35.6,29.0,24.5,92,53,28,30.68,30.39,14,3,14,0.00
2012-1-16,54.1,36.5,32.7,44.3,34.1,30.8,95,91,67,30.73,30.66,7,0,0,0.00
2012-1-18,68.5,57.6,43.4,58.2,42.4,22.1,93,63,18,30.23,30.10,17,2,17,0.03
2012-1-19,65.7,46.6,32.1,43.1,35.8,28.1,96,69,33,30.37,30.21,7,0,0,0.00
2012-1-20,72.3,56.2,39.9,57.0,44.9,35.4,96,70,31,30.34,30.25,11,2,0,0.00
2012-1-21,75.2,64.8,56.2,58.9,55.2,51.0,93,72,49,30.25,30.10,14,4,14,0.26
2012-1-22,58.5,54.6,48.3,57.1,52.8,46.1,96,93,90,30.42,30.19,17,2,17,0.01
2012-1-23,69.4,57.6,47.4,63.5,54.9,45.4,97,91,81,30.39,30.19,11,2,0,0.00
2012-1-24,76.5,64.1,52.7,64.4,60.1,51.6,96,88,62,30.37,30.19,9,1,0,0.03
2012-1-25,69.3,56.6,43.1,58.0,51.8,42.3,97,85,62,30.43,30.31,10,1,0,0.00
2012-1-26,75.5,64.9,54.3,65.6,60.7,52.9,97,87,68,30.31,30.01,17,3,17,0.00
2012-1-27,68.0,62.6,44.9,63.4,54.3,43.1,95,76,46,30.22,29.90,26,5,26,0.21
2012-1-28,68.5,51.4,38.8,46.1,41.2,35.5,97,74,31,30.36,30.21,15,1,15,0.00
2012-1-29,65.7,49.5,37.1,42.5,32.5,15.0,93,60,16,30.55,30.36,11,1,0,0.00
2012-1-30,70.0,47.0,29.7,39.6,29.6,16.6,94,62,14,30.64,30.53,10,1,0,0.00
2012-1-31,70.5,50.0,31.2,47.3,38.5,27.8,96,71,21,30.61,30.48,11,1,0,0.00
2012-2-1,74.8,58.4,41.6,57.7,50.6,40.3,96,78,45,30.49,30.28,15,2,15,0.01
2012-2-2,79.9,64.7,50.5,59.1,54.8,47.7,93,73,36,30.40,30.23,13,2,15,0.00
2012-2-3,66.5,57.5,48.5,53.8,46.0,36.1,92,67,42,30.55,30.39,20,4,20,0.00
2012-2-4,73.7,63.3,54.5,59.2,55.0,49.8,91,75,56,30.48,30.27,15,2,15,0.00
2012-2-5,78.5,69.2,56.4,61.9,57.6,53.8,92,69,50,30.25,30.11,20,3,20,0.00
2012-2-6,58.7,54.9,50.7,49.9,47.6,44.6,86,77,71,30.37,30.27,14,2,14,0.00
2012-2-7,63.2,52.2,43.0,49.6,46.0,41.4,95,80,58,30.33,30.26,5,1,0,0.00
2012-2-8,69.9,52.3,38.2,49.0,39.0,29.5,96,68,23,30.34,30.20,8,1,0,0.00
2012-2-9,57.6,44.2,36.9,42.3,38.0,34.3,93,80,50,30.44,30.31,16,1,16,0.00
2012-2-10,63.1,53.6,43.1,54.0,47.7,40.8,93,81,67,30.37,30.08,8,0,0,0.00
2012-2-11,56.9,49.5,33.1,48.2,31.3,11.9,82,52,25,30.35,29.99,30,5,30,0.00
2012-2-12,49.0,35.2,25.7,23.4,13.1,7.0,80,43,18,30.53,30.34,16,2,16,0.00
2012-2-13,56.9,38.7,22.3,32.2,24.2,16.1,90,62,23,30.49,30.32,13,1,13,0.00
2012-2-14,47.5,38.7,31.8,45.0,35.8,28.8,92,89,83,30.34,30.26,3,0,0,0.11
2012-2-16,75.1,67.7,61.0,60.8,59.8,58.0,91,77,61,30.19,30.15,8,1,0,0.00
2012-2-17,63.8,61.9,60.7,61.1,59.2,57.7,93,91,90,30.18,30.16,11,1,0,0.00
2012-2-18,68.6,62.9,52.2,57.2,54.7,49.1,96,76,53,30.23,30.01,15,2,15,0.30
2012-2-19,75.3,63.0,49.9,67.7,57.6,45.9,97,84,57,30.06,29.72,26,5,26,1.66
2012-2-20,61.1,47.9,37.7,45.9,37.3,31.8,92,69,36,30.48,30.05,16,2,16,0.00
2012-2-21,68.2,52.5,38.6,55.1,46.4,37.0,96,81,56,30.47,30.25,13,1,13,0.00
2012-2-22,74.0,59.9,46.3,61.7,52.9,45.1,97,80,47,30.26,29.89,15,2,15,0.00
2012-2-23,83.5,73.4,64.3,66.6,62.3,55.5,93,71,41,29.95,29.84,21,6,21,0.00
2012-2-24,84.3,75.0,68.8,67.0,65.7,63.8,90,75,51,29.96,29.85,32,7,32,0.00
2012-2-26,59.2,55.1,50.1,47.3,42.7,33.4,78,63,50,30.64,30.55,19,4,19,0.00
2012-2-27,64.9,58.2,52.9,62.2,55.0,47.1,95,89,78,30.55,30.44,5,0,0,0.53
2012-3-1,68.7,65.7,63.5,65.6,63.5,61.7,95,93,90,30.09,30.06,6,1,0,0.07
2012-3-2,82.2,72.0,66.3,68.6,64.1,59.8,94,78,48,30.14,29.97,16,3,16,0.00
2012-3-3,75.5,64.7,55.5,67.1,61.2,53.8,95,89,74,29.97,29.86,16,2,16,2.54
2012-3-4,59.7,51.3,39.5,54.0,38.0,20.9,95,66,24,30.32,29.82,30,4,30,1.42
2012-3-5,70.7,55.0,40.4,37.7,31.0,19.8,84,44,19,30.61,30.31,28,4,28,0.00
2012-3-6,60.1,51.8,43.1,46.5,37.5,26.9,84,59,45,30.77,30.61,19,3,19,0.00
2012-3-7,72.3,59.9,49.3,57.6,52.1,44.9,93,77,55,30.72,30.55,18,2,18,0.00
2012-3-8,77.5,63.8,50.0,61.8,56.6,48.6,97,80,48,30.55,30.33,13,2,13,0.00
2012-3-9,78.5,66.2,60.0,63.8,61.1,57.4,95,85,50,30.38,30.24,17,2,17,0.11
2012-3-10,66.8,57.1,44.7,57.4,44.3,36.8,91,65,35,30.58,30.38,23,3,23,0.00
2012-3-11,68.5,59.3,50.4,56.5,52.1,46.9,91,78,63,30.64,30.55,24,4,24,0.00
2012-3-12,74.8,63.8,55.1,58.0,55.4,53.1,95,76,48,30.57,30.43,11,2,0,0.00
2012-3-13,77.5,64.9,56.7,63.3,59.4,54.4,94,84,57,30.46,30.34,11,1,0,0.49
2012-3-14,85.3,68.7,58.9,68.2,61.6,57.6,97,80,48,30.41,30.31,10,1,0,0.00
2012-3-15,85.0,67.8,55.8,65.4,60.4,54.6,97,80,47,30.46,30.34,12,1,0,0.00
2012-3-16,84.5,67.7,58.3,65.6,60.7,56.7,97,81,42,30.42,30.26,26,2,26,1.01
2012-3-17,86.0,70.8,60.5,66.3,61.6,58.8,96,75,42,30.40,30.28,10,1,0,0.01
2012-3-18,89.3,71.3,60.2,64.8,61.5,57.6,96,73,40,30.45,30.33,9,1,0,0.00
2012-3-19,87.5,70.0,57.9,65.7,60.6,54.6,97,76,43,30.37,30.26,11,1,0,0.00
2012-3-20,82.2,68.3,57.2,68.3,62.4,56.1,97,83,54,30.36,30.26,14,1,14,0.00
2012-3-21,81.1,69.9,59.5,68.0,63.0,58.4,97,81,54,30.40,30.31,14,2,14,0.00
2012-3-22,78.8,70.7,63.9,71.0,65.6,62.4,97,85,65,30.39,30.30,13,1,13,0.34
2012-3-23,84.8,71.1,60.6,69.0,64.4,59.4,97,81,50,30.31,30.13,13,1,13,0.83
2012-3-24,77.6,69.0,62.9,68.9,65.4,59.3,96,88,72,30.17,29.93,21,2,21,0.43
2012-3-25,73.8,63.6,55.7,60.0,54.4,49.3,96,75,45,30.01,29.89,19,3,19,0.02
2012-3-26,84.4,69.6,58.0,60.0,55.0,49.1,87,64,31,30.18,29.99,13,1,13,0.00
2012-3-27,69.7,63.0,56.7,58.9,54.7,51.3,93,76,56,30.42,30.17,19,3,19,0.00
2012-3-28,84.8,69.8,56.0,65.8,59.3,53.4,96,73,37,30.41,30.17,15,2,15,0.00
2012-3-29,87.0,77.0,65.9,62.6,57.9,52.1,86,55,32,30.19,30.03,19,4,19,0.00
2012-3-30,86.5,72.2,58.3,64.1,58.1,50.1,93,65,30,30.17,30.04,14,2,14,0.00
2012-3-31,77.6,70.5,65.2,67.3,64.8,62.0,95,83,62,30.09,29.93,14,2,14,0.23
2012-4-1,86.8,70.9,60.2,66.4,62.1,54.5,96,77,38,30.03,29.92,15,2,15,0.01
2012-4-2,93.2,77.9,65.7,67.5,62.4,55.4,90,63,31,30.02,29.89,18,3,18,0.00
2012-4-3,83.0,74.4,69.8,71.9,68.8,64.8,91,83,68,30.11,30.01,16,3,16,0.00
2012-4-4,89.8,74.2,64.1,70.9,65.3,61.6,94,76,42,30.06,29.84,14,2,14,0.06
2012-4-5,88.2,73.3,65.2,68.7,63.9,58.3,94,75,37,29.90,29.76,19,2,19,0.23
2012-4-6,66.0,58.6,46.8,64.5,53.7,44.0,95,85,52,30.24,29.82,18,2,20,0.04
2012-4-7,74.0,57.4,42.3,50.3,43.3,31.7,96,66,26,30.42,30.24,17,1,17,0.00
2012-4-8,80.3,64.0,47.2,51.6,48.1,44.9,95,62,31,30.38,30.19,14,3,14,0.00
2012-5-29,74.8,74.6,74.5,73.3,73.0,72.7,95,94,94,29.79,29.78,7,2,0,1.98
2012-5-30,92.7,79.3,71.2,73.0,69.0,63.6,95,74,40,30.00,29.76,17,3,17,0.14
2012-5-31,91.3,78.2,68.4,75.5,72.1,67.0,96,83,53,30.03,29.96,12,2,0,0.04
2012-6-1,87.8,77.9,71.7,75.3,70.9,67.5,93,80,56,30.02,29.89,15,3,15,0.02
2012-6-2,86.3,76.3,64.2,69.7,62.6,50.1,94,67,30,30.08,29.92,16,2,16,0.00
2012-6-3,89.3,75.1,58.5,70.3,60.0,53.6,91,63,37,30.16,30.03,13,2,13,0.00
2012-6-4,84.2,77.6,71.6,73.7,69.1,65.8,91,76,59,30.03,29.87,14,3,14,0.20
2012-6-5,85.3,72.7,68.1,70.6,67.1,65.6,94,84,56,30.01,29.85,16,1,16,0.25
2012-6-6,70.8,69.3,68.1,69.3,67.3,65.6,96,93,91,29.99,29.93,8,1,0,0.69
2012-6-8,79.0,71.9,66.2,65.6,64.4,62.3,92,78,58,30.19,30.15,7,1,0,0.00
2012-6-9,84.4,74.5,62.3,71.2,65.6,60.8,96,75,50,30.23,30.15,17,2,17,0.00
2012-6-10,85.0,77.3,70.8,75.7,72.5,68.0,95,86,71,30.30,30.14,12,2,0,0.48
2012-6-11,83.8,75.9,70.0,77.1,72.8,68.5,96,91,78,30.29,30.19,25,3,25,4.06
2012-6-12,76.4,72.7,71.3,73.7,71.3,70.1,96,95,90,30.22,30.15,8,2,0,0.00
2012-6-13,72.6,72.6,72.6,70.5,70.5,70.5,93,93,93,30.09,30.09,0,0,0,0.00
2012-6-14,82.5,73.0,69.3,72.0,68.9,67.4,96,87,65,30.23,30.08,9,1,0,0.00
2012-6-15,86.3,73.4,68.5,68.4,66.1,59.4,93,79,43,30.28,30.18,17,2,17,0.00
2012-6-16,87.1,75.6,65.8,66.8,61.2,51.6,94,66,32,30.35,30.24,21,2,21,0.00
2012-6-17,86.7,74.3,63.6,68.3,63.8,59.6,95,73,42,30.30,30.15,14,1,14,0.00
2012-6-18,88.3,74.7,61.2,68.8,64.7,59.8,96,74,44,30.26,30.18,11,1,0,0.00
2012-6-19,90.6,76.8,64.9,73.3,67.2,60.8,95,75,39,30.31,30.23,17,1,17,0.00
2012-6-20,87.3,77.7,67.4,73.7,68.9,63.3,96,76,47,30.30,30.22,17,2,17,0.00
2012-6-21,91.0,78.4,67.1,73.2,67.9,58.2,96,73,39,30.23,30.10,15,1,15,0.00
2012-6-22,88.3,77.2,65.3,72.5,68.2,63.8,96,76,46,30.12,30.02,11,1,0,0.00
2012-6-23,91.1,80.9,69.5,77.4,73.2,68.3,97,79,56,30.13,30.03,13,2,13,0.00
2012-6-24,89.7,79.7,73.6,77.3,73.9,71.0,97,84,60,30.13,30.03,11,2,0,0.05
2012-6-25,82.5,77.2,73.2,75.9,73.3,71.1,94,88,74,30.06,29.83,12,2,0,0.28
2012-6-26,77.3,75.0,68.7,75.1,73.0,65.7,96,93,89,29.89,29.80,24,1,24,0.05
2012-6-29,103.3,94.5,85.0,78.0,73.7,68.9,74,54,35,30.00,29.94,8,2,0,0.00
2012-6-30,97.5,84.4,77.2,78.7,75.5,73.4,89,76,55,30.02,29.96,8,2,0,0.00
2012-7-1,97.3,92.3,86.1,81.4,80.0,71.3,79,68,60,30.16,30.02,23,4,23,0.00
2012-7-2,92.8,85.7,77.6,75.2,72.4,68.2,89,66,47,30.17,30.12,6,1,0,0.04
2012-7-3,97.0,82.8,75.9,77.9,74.6,72.3,92,78,47,30.16,30.12,8,1,0,0.00
2012-7-4,94.8,88.4,81.1,77.4,73.1,67.7,88,62,44,30.21,30.09,11,2,0,0.00
2012-7-5,101.3,85.0,75.6,79.4,74.7,68.8,91,74,41,30.15,30.03,12,2,0,0.00
2012-7-6,89.8,79.0,74.0,77.5,72.2,68.5,88,80,61,30.15,30.07,7,1,0,0.14
2012-7-7,98.1,94.5,88.3,77.2,74.0,70.3,69,52,43,30.17,30.11,11,4,0,0.00
2012-7-8,97.6,92.3,83.2,77.7,73.8,70.5,82,57,44,30.18,30.06,11,4,0,0.00
2012-7-9,98.5,87.2,78.4,77.5,74.6,67.7,87,69,38,30.13,30.01,16,3,16,0.00
2012-7-10,96.2,85.4,76.8,78.3,74.7,69.7,87,72,46,30.17,30.02,21,3,21,0.00
2012-7-11,95.3,80.8,74.7,76.6,73.5,70.5,93,79,49,30.19,30.13,13,1,13,0.02
2012-7-12,90.7,80.7,72.2,77.9,73.9,70.7,96,81,58,30.23,30.17,15,2,15,0.00
2012-7-13,90.0,81.9,75.2,78.3,75.3,73.2,96,81,61,30.28,30.18,17,2,17,0.53
2012-7-14,90.3,82.5,74.6,77.7,74.3,71.6,95,78,57,30.33,30.23,16,2,16,0.00
2012-7-15,91.2,78.5,71.8,77.7,74.1,70.2,96,87,60,30.31,30.22,15,1,15,1.37
2012-7-16,93.8,81.9,71.8,77.8,74.0,70.6,97,79,55,30.24,30.08,10,1,0,0.02
2012-7-17,94.5,79.6,71.0,77.6,73.6,68.0,95,83,55,30.15,30.07,19,1,20,1.06
2012-7-18,93.3,78.4,72.1,77.2,73.3,70.9,97,86,55,30.19,30.11,10,1,0,0.11
2012-7-19,80.9,79.6,78.3,74.5,73.8,73.0,84,82,80,30.18,30.16,8,2,0,0.02
2012-7-20,92.5,81.4,75.8,78.9,73.7,70.8,92,79,53,30.20,30.10,17,4,17,0.01
2012-7-21,92.8,82.9,76.0,77.2,73.6,70.7,89,75,51,30.27,30.17,13,2,0,0.00
2012-7-22,96.3,85.7,78.4,77.5,75.7,73.0,92,74,49,30.33,30.23,12,2,0,0.00
2012-7-23,93.0,84.1,74.7,79.2,75.1,69.9,96,76,50,30.34,30.22,11,2,0,0.00
2012-7-24,98.3,85.6,74.9,79.2,74.7,71.8,90,72,45,30.25,30.04,19,3,19,0.00
2012-7-25,100.8,86.0,78.0,80.3,76.5,71.7,88,75,49,30.14,30.05,12,2,19,0.00
2012-7-26,100.4,86.7,78.1,80.3,77.4,73.5,89,75,44,30.09,30.01,12,2,0,0.00
2012-7-27,98.3,83.7,76.3,79.5,74.9,71.5,94,76,47,30.15,30.03,22,2,22,0.59
2012-7-28,99.0,81.8,75.2,80.1,75.1,72.5,94,81,50,30.17,30.07,13,2,13,0.01
2012-7-29,97.5,81.3,75.4,79.9,74.7,71.3,93,82,47,30.14,30.05,13,2,13,0.01
2012-7-30,91.5,77.8,69.7,79.2,73.4,66.8,94,87,62,30.12,30.02,15,1,15,1.19
2012-7-31,89.3,78.0,70.0,78.9,74.1,68.5,97,88,70,30.12,30.03,12,1,12,0.29
2012-8-2,74.6,72.1,69.6,70.8,68.9,67.2,95,90,82,30.11,30.04,19,2,19,0.23
2012-8-3,91.8,79.9,68.4,79.3,73.5,66.9,96,82,62,30.20,30.08,8,2,0,0.00
2012-8-4,90.4,81.6,74.4,79.0,75.0,70.3,96,82,54,30.30,30.18,17,2,17,0.01
2012-8-5,89.7,80.8,75.7,78.7,75.7,72.2,95,85,66,30.31,30.22,17,2,17,0.43
2012-8-6,90.3,80.7,75.6,78.9,76.4,74.4,97,88,62,30.28,30.15,13,1,13,0.08
2012-8-7,90.0,77.5,73.1,81.9,75.0,71.8,97,92,68,30.19,30.11,11,1,19,5.44
2012-8-8,87.4,77.8,73.1,79.4,74.8,72.2,98,91,70,30.18,30.09,6,0,0,0.32
2012-8-9,90.8,79.2,72.6,79.5,75.3,69.3,97,89,66,30.15,30.02,19,0,19,0.24
2012-8-10,88.5,79.5,72.9,77.5,73.7,71.5,96,83,64,30.08,30.02,18,2,18,0.00
2012-8-11,90.8,80.1,73.3,78.5,73.2,70.5,91,80,59,30.09,30.00,14,1,14,0.85
2012-8-12,79.6,79.0,78.5,76.7,76.4,76.0,92,92,91,30.15,30.14,3,0,0,0.01
2012-8-13,94.2,82.3,72.7,76.3,73.0,63.8,97,77,42,30.19,30.09,8,1,0,0.00
2012-8-14,94.5,82.8,71.4,77.2,73.1,68.3,95,75,46,30.15,30.03,12,1,12,0.00
2012-8-15,94.2,82.6,75.2,76.9,73.6,69.7,91,76,52,30.14,30.04,13,2,13,0.00
2012-8-16,96.8,77.1,71.5,78.3,72.3,68.5,96,86,52,30.17,30.08,27,1,27,0.92
2012-8-17,91.8,77.4,70.6,79.2,72.5,69.2,97,86,60,30.15,30.00,18,1,18,0.00
2012-8-18,93.8,81.5,72.4,77.4,72.8,70.5,95,77,48,30.05,29.96,11,1,0,0.01
2012-8-19,87.3,79.2,74.2,77.0,75.1,71.0,95,88,70,30.07,29.98,22,1,22,0.37
2012-8-20,87.8,77.9,73.3,75.6,73.0,71.2,95,86,61,30.11,30.01,10,2,0,0.00
2012-8-21,87.1,77.9,72.8,75.4,73.0,71.2,96,86,64,30.16,30.08,6,1,0,0.03
2012-8-22,91.7,78.3,71.3,74.9,72.6,69.8,96,84,53,30.22,30.14,7,1,0,0.00
2012-8-23,83.7,75.0,72.0,75.3,72.3,70.5,96,92,75,30.24,30.16,11,0,0,0.29
2012-8-24,88.3,76.0,69.2,74.6,70.2,67.5,96,83,58,30.24,30.17,24,1,24,0.01
2012-8-25,88.0,75.8,64.6,69.8,66.4,63.1,96,76,46,30.28,30.20,19,1,19,0.00
2012-8-26,89.8,77.3,65.6,73.3,68.6,64.2,97,77,48,30.28,30.16,19,2,19,0.01
2012-8-27,84.6,78.9,74.2,80.3,75.4,71.5,95,89,80,30.19,30.11,14,2,14,0.51
2012-8-28,87.4,78.2,73.8,81.2,75.7,72.0,96,92,78,30.14,30.05,11,1,0,1.52
2012-8-29,94.2,79.6,73.1,80.0,75.2,71.6,97,87,59,30.19,30.06,18,1,18,1.34
2012-8-30,81.0,75.6,73.0,77.5,74.0,71.0,96,95,88,30.30,30.10,8,0,0,0.79
2012-8-31,94.5,82.2,72.6,80.3,75.2,71.4,97,81,54,30.37,30.27,9,1,0,0.01
2012-9-1,98.2,83.4,73.8,80.1,75.8,72.2,96,80,45,30.32,30.18,19,1,19,0.00
2012-9-2,96.0,83.4,74.8,79.1,75.9,72.3,93,79,56,30.22,30.09,12,1,0,0.00
2012-9-3,91.1,80.9,76.5,78.8,75.0,70.7,93,83,63,30.18,30.11,7,1,12,0.00
2012-9-4,90.2,80.2,74.7,79.0,74.6,71.2,94,84,65,30.14,30.05,17,1,17,0.40
2012-9-5,93.0,80.4,71.6,78.4,74.2,70.1,96,83,54,30.12,30.04,11,1,0,0.01
2012-9-6,93.8,82.5,73.6,76.7,74.0,70.5,95,78,50,30.14,30.04,8,1,0,0.00
2012-9-7,95.4,82.1,75.2,78.9,74.9,72.2,92,80,57,30.10,30.00,13,1,13,0.02
2012-9-8,91.2,79.9,75.1,78.9,74.5,72.5,94,85,57,30.02,29.92,19,3,19,0.62
2012-9-9,86.3,77.2,70.2,76.0,72.1,67.2,95,85,66,30.12,29.92,12,2,12,0.03
2012-9-10,88.0,73.9,62.7,67.1,62.5,55.3,95,72,36,30.27,30.11,16,1,16,0.01
2012-9-11,85.5,73.7,63.4,67.1,61.3,56.1,95,69,39,30.39,30.26,18,2,18,0.00
2012-9-12,85.5,73.4,61.7,66.4,62.0,54.8,93,70,38,30.43,30.35,22,2,22,0.00
2012-9-13,81.0,73.3,64.9,72.4,67.2,62.6,93,82,64,30.39,30.30,15,2,15,0.00
2012-9-14,87.2,74.6,65.3,75.0,69.0,63.4,94,84,61,30.33,30.24,15,1,15,0.05
2012-9-15,89.6,75.8,64.9,72.4,67.9,63.4,95,79,47,30.30,30.20,14,1,14,0.01
2012-9-16,88.5,75.6,65.7,75.3,69.4,64.2,95,83,59,30.26,30.16,11,1,0,0.01
2012-9-17,87.6,77.6,66.6,76.3,71.3,65.1,96,82,62,30.21,30.05,11,2,13,0.00
2012-9-18,81.4,77.7,73.4,75.9,73.1,70.2,93,86,80,30.06,29.89,15,4,15,0.32
2012-9-19,89.7,75.3,69.1,74.1,69.4,66.0,94,83,55,30.22,29.99,10,1,0,0.00
2012-9-20,83.8,73.0,66.0,70.9,67.5,63.6,92,83,60,30.25,30.16,11,1,0,0.00
2012-9-21,87.8,75.3,66.3,70.2,67.3,64.5,94,78,51,30.22,30.14,10,1,0,0.00
2012-9-22,92.8,76.0,64.0,72.9,67.4,62.2,95,77,45,30.20,30.10,9,1,0,0.00
2012-9-23,88.8,76.1,63.0,71.4,66.2,59.3,93,75,40,30.23,30.13,12,1,12,0.00
2012-9-24,86.0,70.7,56.0,65.6,59.9,54.0,94,72,36,30.30,30.20,15,2,15,0.00
2012-9-25,84.3,70.3,58.4,65.6,59.4,52.1,95,73,37,30.36,30.28,18,1,18,0.00
2012-9-26,88.7,73.4,60.9,73.4,67.2,59.1,95,82,59,30.35,30.26,12,1,12,0.01
2012-9-27,91.8,76.6,67.7,75.2,69.2,65.9,95,80,48,30.33,30.22,12,1,12,0.00
2012-9-28,92.3,76.3,63.7,73.3,67.9,62.1,95,78,45,30.26,30.13,8,0,0,0.01
2012-9-29,87.9,75.0,66.0,72.5,68.5,64.4,95,82,56,30.17,29.99,10,1,0,0.69
2012-9-30,81.8,74.0,70.1,74.1,70.6,68.3,95,90,74,30.04,29.95,12,0,12,0.80
2012-10-1,88.3,78.6,70.4,77.4,73.8,68.9,96,86,66,29.97,29.87,15,2,15,0.01
2012-10-2,85.8,79.1,74.8,77.4,74.9,72.2,94,87,71,30.12,29.89,18,2,18,0.73
2012-10-3,83.3,76.6,70.9,74.8,71.8,68.8,94,86,66,30.35,30.12,7,0,0,0.33
2012-10-4,81.2,74.0,69.7,74.0,70.9,68.1,95,90,76,30.39,30.30,7,0,0,0.00
2012-10-5,86.3,75.6,69.7,73.7,69.3,65.7,95,83,54,30.32,30.16,11,1,0,0.01
2012-10-6,90.2,75.7,67.5,76.5,70.9,65.8,95,86,60,30.17,30.02,8,0,0,0.00
2012-10-7,89.2,76.2,69.4,77.3,70.6,67.7,95,85,53,30.15,30.06,10,1,0,0.01
2012-10-8,72.2,64.0,56.2,69.7,61.4,54.3,94,91,86,30.25,30.13,14,2,14,0.25
2012-10-9,73.9,60.2,53.9,60.1,55.5,52.0,95,86,60,30.30,30.21,11,1,0,0.00
2012-10-10,78.3,63.1,53.9,64.4,58.2,52.5,95,86,59,30.30,30.18,7,1,0,0.00
2012-10-11,79.8,64.7,53.5,61.2,57.1,51.8,95,79,50,30.41,30.28,13,1,13,0.01
2012-10-12,86.8,68.1,54.7,66.2,60.1,53.3,96,79,47,30.39,30.28,7,0,0,0.01
2012-10-13,78.0,68.1,58.4,66.3,61.4,56.1,95,80,66,30.48,30.36,21,2,21,0.00
2012-10-14,82.0,69.8,59.5,70.2,64.2,57.8,95,83,66,30.41,30.18,14,1,14,0.00
2012-10-15,85.0,71.4,62.6,71.6,66.1,59.3,95,85,59,30.19,29.92,15,1,15,0.06
2012-10-16,77.3,62.4,51.0,59.3,52.7,47.8,94,75,36,30.11,30.00,18,1,18,0.00
2012-10-17,76.8,62.9,54.3,63.0,57.9,52.6,95,85,60,30.14,30.02,9,1,0,0.01
2012-10-18,81.0,70.5,60.3,70.7,66.0,58.3,95,86,65,30.04,29.92,10,1,0,0.04
2012-10-19,81.0,70.7,56.5,69.5,57.6,43.1,94,69,28,30.02,29.92,10,1,0,0.05
2012-10-20,77.5,62.4,48.8,56.7,50.7,43.8,95,71,34,30.10,29.98,12,1,12,0.00
2012-10-21,78.0,60.7,48.5,57.6,52.0,46.6,95,76,42,30.29,30.10,12,1,12,0.00
2012-10-22,79.9,60.9,47.8,57.2,50.5,46.3,96,74,33,30.37,30.27,16,1,16,0.01
2012-10-23,83.0,64.5,49.5,64.6,57.9,48.1,96,81,53,30.33,30.24,12,1,12,0.01
2012-10-24,84.0,70.9,60.3,69.1,64.0,58.9,96,81,50,30.30,30.20,15,1,15,0.01
2012-10-25,83.2,72.6,65.0,70.5,67.0,63.5,95,84,65,30.22,30.13,20,2,20,0.01
2012-10-26,79.6,71.3,66.1,67.3,64.7,61.6,94,81,61,30.13,29.91,17,2,17,0.00
2012-10-27,72.9,69.3,67.1,63.7,62.0,57.3,87,78,69,29.91,29.72,20,5,20,0.00
2012-10-28,78.8,67.9,58.6,57.8,55.4,49.1,87,66,44,29.83,29.72,20,3,20,0.00
2012-10-29,65.3,56.1,47.9,49.1,41.1,35.6,78,59,38,29.88,29.72,20,5,20,0.00
2012-10-30,62.7,52.9,45.0,36.1,30.8,23.9,63,45,24,29.94,29.75,22,5,22,0.00
2012-10-31,69.1,54.8,44.7,43.1,32.1,23.2,78,45,18,30.02,29.92,22,4,22,0.00
2012-11-1,68.9,53.8,41.9,43.3,35.0,15.7,88,58,14,30.11,29.98,19,3,19,0.00
2012-11-2,76.0,55.7,37.6,50.7,41.5,33.5,92,64,32,30.18,30.03,17,2,17,0.00
2012-11-3,75.8,59.2,45.6,54.9,48.7,41.8,94,72,34,30.26,30.11,9,1,0,0.00
2012-11-4,84.8,67.4,51.2,63.7,58.9,49.5,95,78,39,30.19,30.03,20,1,20,0.11
2012-11-5,68.5,57.5,48.2,60.2,51.0,46.3,95,81,48,30.18,30.07,16,1,16,0.01
2012-11-6,61.1,51.8,40.4,53.3,47.2,38.3,95,85,63,30.16,30.03,18,1,18,0.11
2012-11-7,56.1,44.7,39.2,43.3,39.7,36.6,94,83,60,30.15,30.03,8,1,0,0.00
2012-11-8,68.7,49.3,37.5,46.8,39.7,34.8,95,75,30,30.32,30.14,13,1,13,0.01
2012-11-9,75.0,51.0,34.6,48.5,40.6,33.3,95,74,27,30.45,30.31,7,0,0,0.00
2012-11-10,75.0,53.1,37.2,53.2,42.3,35.9,96,74,27,30.54,30.42,7,0,0,0.01
2012-11-11,79.0,60.8,44.1,63.0,55.6,42.3,95,85,56,30.57,30.48,13,1,13,0.01
2012-11-12,76.5,65.8,55.2,67.6,61.7,53.8,96,87,68,30.49,30.33,11,1,0,0.01
2012-11-13,78.0,63.3,52.8,68.1,59.4,50.8,95,88,69,30.42,30.28,13,1,13,0.01
2012-11-14,55.2,52.1,50.4,51.0,48.2,46.2,94,87,79,30.50,30.38,15,1,15,0.00
2012-11-15,52.1,48.6,46.0,48.5,46.5,43.9,94,92,84,30.41,30.32,14,2,14,0.39
2012-11-16,54.2,49.6,45.8,49.2,46.7,43.9,95,90,82,30.45,30.36,10,1,0,0.00
2012-11-17,61.0,51.1,42.3,47.7,44.7,40.1,95,80,57,30.50,30.42,15,1,15,0.01
2012-11-18,54.1,52.6,50.1,50.9,48.5,45.3,93,86,78,30.44,30.35,17,4,17,0.07
2012-11-19,66.5,56.4,52.2,55.8,51.8,49.7,94,85,68,30.37,30.27,15,2,15,0.00
2012-11-20,72.0,56.6,46.3,54.3,49.7,44.6,94,80,47,30.30,30.17,13,1,13,0.01
2012-11-21,69.3,53.1,41.3,52.3,44.5,39.8,96,76,41,30.28,30.20,14,1,14,0.01
2012-11-22,67.8,49.4,37.5,43.6,37.5,32.1,94,70,28,30.38,30.27,14,1,14,0.00
2012-11-23,73.0,52.2,32.3,49.1,41.3,31.0,95,71,37,30.35,30.12,10,1,0,0.00
2012-11-24,64.5,52.9,38.7,47.1,39.1,31.9,90,63,33,30.25,30.12,13,1,13,0.00
2012-11-25,67.0,46.6,32.1,47.9,37.4,28.3,95,74,30,30.35,30.24,9,0,0,0.00
2012-11-26,71.3,49.0,32.1,44.4,35.9,24.3,96,70,18,30.42,30.30,8,0,0,0.00
2012-11-27,62.9,52.0,41.4,53.9,48.5,39.6,95,88,64,30.36,30.25,6,0,0,0.06
2012-11-28,59.9,50.8,38.4,51.5,48.1,37.1,95,91,71,30.54,30.32,10,0,0,0.01
2012-11-29,65.3,48.5,33.8,48.6,42.2,32.5,96,81,54,30.60,30.50,17,1,17,0.01
2012-11-30,70.0,54.9,42.6,56.4,49.3,40.9,95,83,61,30.53,30.43,12,1,12,0.00
2012-12-1,71.8,57.5,45.1,61.5,52.6,43.8,96,85,65,30.52,30.44,16,1,16,0.01
2012-12-2,78.2,62.3,50.9,63.2,56.8,49.2,95,84,49,30.52,30.41,7,1,0,0.00
2012-12-3,79.7,60.7,50.3,65.6,56.6,48.8,96,87,58,30.49,30.39,8,0,0,0.01
2012-12-4,76.5,61.3,52.2,65.6,57.1,50.8,96,87,62,30.50,30.39,8,0,0,0.00
2012-12-5,81.8,60.4,46.9,60.8,53.2,45.4,96,81,40,30.40,30.24,6,0,0,0.01
2012-12-6,67.3,59.5,53.3,58.6,55.0,51.6,95,85,70,30.32,30.24,20,2,20,0.00
2012-12-7,65.3,56.1,50.8,56.8,51.9,48.9,95,86,73,30.25,30.13,12,1,12,0.00
2012-12-8,74.3,57.3,46.8,60.6,52.8,45.3,96,86,60,30.25,30.16,6,0,0,0.00
2012-12-9,79.4,63.0,50.3,68.6,59.4,48.9,95,89,67,30.29,30.13,7,0,0,0.01
2012-12-10,78.3,67.7,60.1,64.9,61.9,58.4,96,83,52,30.13,29.93,13,2,13,0.00
2012-12-11,70.9,65.0,57.6,65.1,62.1,54.8,95,91,80,30.23,29.95,8,0,0,0.05
2012-12-12,57.8,53.8,48.5,55.2,51.4,46.8,94,92,87,30.35,30.22,16,0,16,0.46
2012-12-13,48.5,45.1,43.2,46.9,43.1,41.3,95,93,90,30.48,30.32,16,2,16,0.03
2012-12-14,65.0,49.4,39.6,48.1,43.4,37.6,95,82,50,30.53,30.35,12,1,12,0.00
2012-12-15,63.4,56.0,49.7,58.1,51.0,43.1,94,84,72,30.39,30.26,10,0,0,0.00
2012-12-16,75.3,67.8,61.5,65.1,62.6,59.5,95,84,67,30.19,30.06,11,2,0,0.00
2012-12-17,72.3,64.6,59.9,65.9,61.5,58.5,95,90,75,30.06,29.88,21,2,21,0.42
2012-12-18,67.7,58.5,39.6,60.2,48.2,31.0,95,74,27,30.17,29.93,21,3,21,0.01
2012-12-19,72.3,51.3,35.1,47.9,39.6,31.1,96,72,23,30.29,30.17,10,1,0,0.00
2012-12-20,73.0,56.8,37.7,63.2,51.5,36.4,96,84,63,30.27,29.85,24,4,24,0.25
2012-12-21,57.4,47.7,43.0,46.5,28.6,20.5,67,48,35,30.20,29.95,29,8,29,0.00
2012-12-22,59.4,45.0,35.3,34.0,23.8,19.7,80,45,23,30.37,30.20,20,3,20,0.00
2012-12-23,61.9,46.0,29.0,39.3,30.6,25.3,93,60,30,30.40,30.27,9,1,0,0.00
2012-12-24,62.9,52.6,41.8,55.2,42.3,33.3,94,70,42,30.29,30.09,9,1,0,0.02
2012-12-25,59.4,56.6,53.0,56.4,54.7,50.9,95,93,89,30.20,30.04,12,1,12,0.14
2012-12-26,66.4,57.3,43.0,62.4,50.3,33.6,96,78,52,30.05,29.72,27,6,27,0.33
2012-12-27,56.9,43.9,34.4,40.1,35.4,31.8,95,73,49,30.24,30.03,19,3,19,0.00
2012-12-28,58.7,45.8,30.5,50.8,40.8,29.1,96,84,56,30.31,30.07,8,0,0,0.00
2012-12-29,64.5,52.9,42.3,62.8,47.1,31.8,95,81,64,30.27,29.83,20,4,22,0.86
2012-12-30,56.5,41.3,29.6,36.4,30.7,27.0,94,69,34,30.59,30.27,11,2,18,0.00
2012-12-31,65.7,44.8,27.7,48.7,37.8,26.0,94,80,44,30.59,30.37,8,0,0,0.00
2013-1-1,70.8,56.6,45.3,59.2,52.2,43.3,95,86,66,30.37,30.11,8,1,0,0.00